METAR AND TAF INFORMATION
METAR FOR EGLL
EGLL 230350Z AUTO 24006KT 9999 BKN007 BKN014 OVC027 18/16 Q1014 TEMPO SCT007
EGLL 230320Z AUTO 22005KT 9999 BKN006 OVC024 18/16 Q1014 NOSIG
EGLL 230250Z AUTO 21005KT 9999 SCT005 SCT010 BKN018 18/17 Q1014 TEMPO BKN007
EGLL 230220Z AUTO 21006KT 9999 BKN007 OVC012 18/16 Q1014 NOSIG
EGLL 230150Z AUTO 21004KT 9999 OVC009 18/16 Q1014 TEMPO BKN010
EGLL 230120Z AUTO 20004KT 9999 OVC011 18/16 Q1014 NOSIG
EGLL 230050Z AUTO 21005KT 9999 -RA OVC010 18/16 Q1014 NOSIG

TAF AMD EGLL 230000Z 2300/2406 23006KT 9999 SCT040
TEMPO 2300/2310 BKN012
PROB30
TEMPO 2302/2310 7000 -RADZ SHRA BKN009
BECMG 2308/2311 31010KT
PROB30
TEMPO 2312/2316 9000 -SHRA
BECMG 2320/2323 VRB03KT

 AIRPORT MAP

 RUNWAY INFORMATION
Runway 09L Runway length 12799 ft Runway width 164 ft
Runway elevation 79 ft Runway displaced threshold 1007 ft Runway heading 90
Runway 27R Runway length 12799 ft Runway width 164 ft
Runway elevation 78 ft Runway displaced threshold 0 ft Runway heading 270
Runway 09R Runway length 12001 ft Runway width 148 ft
Runway elevation 75 ft Runway displaced threshold 1013 ft Runway heading 90
Runway 27L Runway length 12001 ft Runway width 148 ft
Runway elevation 77 ft Runway displaced threshold 0 ft Runway heading 270

 AIRPORT FREQUENCIES
Type APP Name APP Frequency 119.725 MHZ
Type ATIS Name ATIS Frequency 128.075 MHZ
Type CLD Name CLNC DEL Frequency 121.975 MHZ
Type GND Name GND Frequency 121.7 MHZ
Type TWR Name TWR Frequency 118.475 MHZ

 AIRPORT NEAR NAVIGATION AIDS
Type VOR-DME Name London Frequency 113600 KHZ

-